Auberry, California
Current Conditions -  °F | °C
As of 12:53 PM on Wednesday 26 Nov 2014 (Local Time) from KFAT Reporting Station
Haze Haze  
Wind Chill: 65°   Ceiling: Unl
Heat Index: 65°   Visibility: 4mi
Dew Point: 46°   Wind: 3mph
Humidity: 50%   Direction: 170°S
Pressure: 30.26"   Gusts: NA
Location:  37.08°N, 119.49°W
Report Text: KFAT 262053Z 17003KT 4SM HZ CLR 18/08 A3026 RMK AO2 SLP247 T01830078 58032
Loading
Personal Weather Stations






























Interactive Weather Map New forecast layout! Learn more

10-Day Weather Forecast

Advertisements
Track Severe Weather on mobile